Time;durP1;ratioP1;P1;durP2;ratioP2;P2;SDS_P1;SDS_P2;PMS_P1;PMS_P2;Temp;Humidity;BMP_temperature;BMP_pressure;BME280_temperature;BME280_humidity;BME280_pressure;Samples;Min_cycle;Max_cycle;Signal;HPM_P1;HPM_P2
2023/08/17 10:50:26;;;;;;;16.27;12.47;;;;;;;;;;5074241;28;20615;-52
2023/08/17 10:52:53;;;;;;;19.17;14.30;;;;;;;;;;5058313;28;20401;-59
2023/08/17 10:56:16;;;;;;;23.20;12.33;;;;;;;;;;5089045;28;20607;-49
2023/08/17 10:58:44;;;;;;;18.80;12.57;;;;;;;;;;5089001;28;20417;-50
2023/08/17 11:01:10;;;;;;;21.47;14.03;;;;;;;;;;5082653;28;20484;-57
2023/08/17 11:03:36;;;;;;;22.20;12.27;;;;;;;;;;5083640;28;20472;-64
2023/08/17 11:06:15;;;;;;;18.20;12.97;;;;;;;;;;5097665;28;20419;-60
2023/08/17 11:10:42;;;;;;;22.03;12.50;;;;;;;;;;5053584;28;20996;-31
2023/08/17 11:13:08;;;;;;;17.73;12.23;;;;;;;;;;5015231;28;56704;-28
2023/08/17 11:15:42;;;;;;;22.93;14.63;;;;;;;;;;5009589;28;20433;-28
2023/08/17 11:18:08;;;;;;;19.73;13.23;;;;;;;;;;5007150;28;20561;-29
2023/08/17 11:20:34;;;;;;;15.67;12.00;;;;;;;;;;5016164;28;20431;-30
2023/08/17 11:23:00;;;;;;;17.33;12.30;;;;;;;;;;5028972;28;20413;-30
2023/08/17 11:25:27;;;;;;;18.80;13.00;;;;;;;;;;5012913;28;20425;-29
2023/08/17 11:38:32;;;;;;;16.27;11.03;;;;;;;;;;5039372;27;20616;-70
2023/08/17 11:41:01;;;;;;;18.00;12.13;;;;;;;;;;5028680;28;20957;-70
2023/08/17 11:43:30;;;;;;;17.37;12.07;;;;;;;;;;5031898;28;20996;-71
2023/08/17 11:45:56;;;;;;;16.20;12.20;;;;;;;;;;5050162;28;20456;-71
2023/08/17 11:48:23;;;;;;;13.53;11.43;;;;;;;;;;5053019;28;20467;-70
2023/08/17 11:50:50;;;;;;;14.70;10.60;;;;;;;;;;5037634;28;20431;-70
2023/08/17 11:53:16;;;;;;;18.00;11.60;;;;;;;;;;5049012;28;20748;-78
2023/08/17 11:55:42;;;;;;;16.30;10.02;;;;;;;;;;5047374;28;20427;-74
2023/08/17 11:58:08;;;;;;;15.25;10.40;;;;;;;;;;5046913;28;20424;-70
2023/08/17 12:00:40;;;;;;;14.07;11.43;;;;;;;;;;5048056;28;20194;-69
2023/08/17 12:03:06;;;;;;;19.50;11.37;;;;;;;;;;5044492;28;20436;-70
2023/08/17 12:05:32;;;;;;;14.80;12.20;;;;;;;;;;5042403;28;20406;-69
2023/08/17 12:08:01;;;;;;;14.00;11.10;;;;;;;;;;5046593;28;20917;-70
2023/08/17 12:10:32;;;;;;;19.67;11.00;;;;;;;;;;5047383;28;20806;-70
2023/08/17 12:13:01;;;;;;;16.67;11.83;;;;;;;;;;5039919;28;20424;-70
2023/08/17 12:15:36;;;;;;;16.27;12.70;;;;;;;;;;5050139;28;20412;-69
2023/08/17 12:18:03;;;;;;;21.97;12.53;;;;;;;;;;5046387;28;20452;-69
2023/08/17 12:20:30;;;;;;;18.33;14.57;;;;;;;;;;5057844;28;20540;-69
2023/08/17 12:22:57;;;;;;;21.63;13.57;;;;;;;;;;5047717;28;20429;-69
2023/08/17 12:25:24;;;;;;;23.83;13.20;;;;;;;;;;5045953;28;20424;-69
2023/08/17 12:27:50;;;;;;;17.90;12.50;;;;;;;;;;5041479;28;21031;-69
2023/08/17 12:30:31;;;;;;;16.97;12.90;;;;;;;;;;5050489;28;20523;-69
2023/08/17 12:32:57;;;;;;;20.23;12.90;;;;;;;;;;5046864;28;20896;-69
2023/08/17 12:35:24;;;;;;;26.63;13.73;;;;;;;;;;5047733;28;20495;-69
2023/08/17 12:37:50;;;;;;;22.77;13.90;;;;;;;;;;5047924;28;20470;-69
2023/08/17 12:40:16;;;;;;;19.00;12.70;;;;;;;;;;5047223;28;20450;-69
2023/08/17 12:42:42;;;;;;;19.73;14.10;;;;;;;;;;5047175;28;20408;-69
2023/08/17 12:45:08;;;;;;;22.53;12.30;;;;;;;;;;5047942;28;20898;-69
2023/08/17 12:47:34;;;;;;;15.20;12.27;;;;;;;;;;5046729;28;20417;-70
2023/08/17 12:50:00;;;;;;;17.20;12.67;;;;;;;;;;5014164;28;20658;-69
2023/08/17 12:52:26;;;;;;;18.33;11.90;;;;;;;;;;5013779;28;20472;-69
2023/08/17 12:54:52;;;;;;;14.87;11.47;;;;;;;;;;5014762;28;20410;-70
2023/08/17 12:57:18;;;;;;;20.30;9.87;;;;;;;;;;5014902;28;20561;-69
2023/08/17 12:59:44;;;;;;;17.37;11.17;;;;;;;;;;5014373;28;20496;-69
2023/08/17 13:02:10;;;;;;;16.83;9.60;;;;;;;;;;5014894;28;20485;-69
2023/08/17 13:04:36;;;;;;;12.97;9.67;;;;;;;;;;5014634;28;20417;-68
2023/08/17 13:07:02;;;;;;;13.93;9.40;;;;;;;;;;5014451;28;20493;-69
2023/08/17 13:09:28;;;;;;;14.80;9.83;;;;;;;;;;5014222;28;20516;-69
2023/08/17 13:11:54;;;;;;;14.17;9.37;;;;;;;;;;5015159;28;20414;-69
2023/08/17 13:14:22;;;;;;;14.50;8.27;;;;;;;;;;5016371;28;20497;-69
2023/08/17 13:16:48;;;;;;;15.80;9.63;;;;;;;;;;5018894;28;20483;-70
2023/08/17 13:19:14;;;;;;;15.20;8.30;;;;;;;;;;5022678;28;20489;-67
2023/08/17 13:21:40;;;;;;;12.40;9.03;;;;;;;;;;5026026;28;20414;-67
2023/08/17 13:24:06;;;;;;;11.90;8.37;;;;;;;;;;5017115;28;20748;-67
2023/08/17 13:26:32;;;;;;;14.13;9.30;;;;;;;;;;5017845;28;20421;-67
2023/08/17 13:28:58;;;;;;;15.53;9.43;;;;;;;;;;5018682;28;20914;-69
2023/08/17 13:31:24;;;;;;;12.63;8.73;;;;;;;;;;5015420;28;20418;-69
2023/08/17 13:33:50;;;;;;;14.60;8.63;;;;;;;;;;5015316;28;20411;-68
2023/08/17 13:36:16;;;;;;;13.50;9.30;;;;;;;;;;5015326;28;20844;-68
2023/08/17 13:38:42;;;;;;;11.70;8.60;;;;;;;;;;5014424;28;20488;-68
2023/08/17 13:41:08;;;;;;;14.30;9.00;;;;;;;;;;5014829;28;20438;-68
2023/08/17 13:43:34;;;;;;;17.00;9.80;;;;;;;;;;5013297;28;20911;-68
2023/08/17 13:46:00;;;;;;;15.30;9.67;;;;;;;;;;5014337;28;20426;-68
2023/08/17 13:48:26;;;;;;;11.73;9.23;;;;;;;;;;5012762;28;20500;-68
2023/08/17 13:50:52;;;;;;;15.80;10.13;;;;;;;;;;5014151;28;20469;-68
2023/08/17 13:53:18;;;;;;;12.60;9.20;;;;;;;;;;5014517;28;20426;-69
2023/08/17 13:55:44;;;;;;;15.50;10.17;;;;;;;;;;5014402;28;20428;-68
2023/08/17 13:58:11;;;;;;;14.83;10.00;;;;;;;;;;5013697;28;20492;-68
2023/08/17 14:00:37;;;;;;;15.67;9.77;;;;;;;;;;5016580;28;20500;-68
2023/08/17 14:03:03;;;;;;;16.13;10.87;;;;;;;;;;5018086;28;20417;-69
2023/08/17 14:05:29;;;;;;;17.33;12.20;;;;;;;;;;5023938;28;20426;-67
2023/08/17 14:07:55;;;;;;;12.70;9.33;;;;;;;;;;5034413;28;20775;-68
2023/08/17 14:10:21;;;;;;;12.80;9.50;;;;;;;;;;5035226;28;20479;-68
2023/08/17 14:12:47;;;;;;;14.37;10.10;;;;;;;;;;5041073;28;20413;-67
2023/08/17 14:15:14;;;;;;;14.73;10.90;;;;;;;;;;5040863;28;20420;-69
2023/08/17 14:17:40;;;;;;;17.30;10.77;;;;;;;;;;5025631;28;20512;-69
2023/08/17 14:20:06;;;;;;;15.03;11.53;;;;;;;;;;5019943;28;20805;-69
2023/08/17 14:22:32;;;;;;;16.17;10.40;;;;;;;;;;5006141;28;20407;-69
2023/08/17 14:24:59;;;;;;;19.63;10.60;;;;;;;;;;5002819;28;20865;-69
2023/08/17 14:27:25;;;;;;;14.10;11.20;;;;;;;;;;5005149;28;20446;-69
2023/08/17 14:29:51;;;;;;;18.30;11.10;;;;;;;;;;4999489;28;20454;-69
2023/08/17 14:32:17;;;;;;;14.53;10.07;;;;;;;;;;4995854;28;20411;-69
2023/08/17 14:34:43;;;;;;;16.67;10.37;;;;;;;;;;5011451;28;20564;-69
2023/08/17 14:37:09;;;;;;;15.07;10.07;;;;;;;;;;5016826;28;20474;-69
2023/08/17 14:39:35;;;;;;;20.27;12.57;;;;;;;;;;5014244;28;20430;-70
2023/08/17 14:42:01;;;;;;;19.53;12.10;;;;;;;;;;5012538;28;20504;-68
2023/08/17 14:44:27;;;;;;;17.33;11.87;;;;;;;;;;5029578;28;20543;-68
2023/08/17 14:46:53;;;;;;;18.33;11.70;;;;;;;;;;5033441;28;20421;-67
2023/08/17 14:49:19;;;;;;;18.60;11.90;;;;;;;;;;5032543;28;20437;-68
2023/08/17 14:51:45;;;;;;;22.83;12.77;;;;;;;;;;5033532;28;20496;-68
2023/08/17 14:54:11;;;;;;;21.03;11.63;;;;;;;;;;5031862;28;20921;-69
2023/08/17 14:56:38;;;;;;;17.00;10.30;;;;;;;;;;5027230;28;20568;-68
2023/08/17 14:59:04;;;;;;;14.30;11.70;;;;;;;;;;5032459;28;20425;-68
2023/08/17 15:01:30;;;;;;;14.67;10.77;;;;;;;;;;5032553;28;20413;-68
2023/08/17 15:03:56;;;;;;;17.83;12.23;;;;;;;;;;5028095;28;20914;-68
2023/08/17 15:06:23;;;;;;;13.97;9.93;;;;;;;;;;5032265;28;20886;-68
2023/08/17 15:08:50;;;;;;;16.87;10.37;;;;;;;;;;5032140;28;20459;-69
2023/08/17 15:11:16;;;;;;;15.97;10.40;;;;;;;;;;5032131;28;20600;-68
2023/08/17 15:13:42;;;;;;;18.60;10.07;;;;;;;;;;5024526;28;20959;-69
2023/08/17 15:16:08;;;;;;;15.23;9.67;;;;;;;;;;5012541;28;20410;-68
2023/08/17 15:18:34;;;;;;;19.03;10.60;;;;;;;;;;5011919;28;20409;-68
2023/08/17 15:21:00;;;;;;;16.07;9.40;;;;;;;;;;5012367;28;20851;-69
2023/08/17 15:23:26;;;;;;;16.33;9.70;;;;;;;;;;5017968;28;20432;-69
2023/08/17 15:25:52;;;;;;;17.27;10.70;;;;;;;;;;5030155;28;20409;-69
2023/08/17 15:28:18;;;;;;;16.53;11.70;;;;;;;;;;5030635;28;20413;-68
2023/08/17 15:30:44;;;;;;;14.73;10.40;;;;;;;;;;5031377;28;20562;-69
2023/08/17 15:33:10;;;;;;;11.80;9.00;;;;;;;;;;5029524;28;20433;-69
2023/08/17 15:35:36;;;;;;;15.23;9.30;;;;;;;;;;5032356;28;20417;-70
2023/08/17 15:38:02;;;;;;;17.40;9.73;;;;;;;;;;5031587;28;20478;-68
2023/08/17 15:40:28;;;;;;;14.40;10.10;;;;;;;;;;5031753;28;20429;-67
2023/08/17 15:42:54;;;;;;;18.80;11.13;;;;;;;;;;5027306;28;20524;-67
2023/08/17 15:45:21;;;;;;;12.70;9.53;;;;;;;;;;5012200;28;20413;-69
2023/08/17 15:47:47;;;;;;;14.73;9.57;;;;;;;;;;5012099;28;20791;-69
2023/08/17 15:50:13;;;;;;;12.93;9.50;;;;;;;;;;5011842;28;20556;-69
2023/08/17 15:52:39;;;;;;;14.50;10.30;;;;;;;;;;5013835;28;20508;-69
2023/08/17 15:55:05;;;;;;;10.37;8.90;;;;;;;;;;5030661;28;20421;-70
2023/08/17 15:57:31;;;;;;;15.57;10.37;;;;;;;;;;5030283;28;20537;-69
2023/08/17 15:59:57;;;;;;;15.37;11.33;;;;;;;;;;5031096;28;20428;-69
2023/08/17 16:02:23;;;;;;;20.07;11.00;;;;;;;;;;5031570;28;20421;-68
2023/08/17 16:04:49;;;;;;;16.67;10.53;;;;;;;;;;5028731;28;20444;-68
2023/08/17 16:07:15;;;;;;;13.30;8.90;;;;;;;;;;5031572;28;20475;-68
2023/08/17 16:09:41;;;;;;;13.40;9.60;;;;;;;;;;5031163;28;20437;-69
2023/08/17 16:12:07;;;;;;;16.40;11.37;;;;;;;;;;5031335;28;20425;-69
2023/08/17 16:14:34;;;;;;;17.00;9.37;;;;;;;;;;5027627;28;20501;-69
2023/08/17 16:17:00;;;;;;;16.20;10.90;;;;;;;;;;5011864;28;20527;-68
2023/08/17 16:19:26;;;;;;;15.93;10.90;;;;;;;;;;5011336;28;20928;-69
2023/08/17 16:21:52;;;;;;;14.73;10.83;;;;;;;;;;5011712;28;20467;-69
2023/08/17 16:24:18;;;;;;;13.00;10.73;;;;;;;;;;5014806;28;20438;-69
2023/08/17 16:26:44;;;;;;;17.53;10.13;;;;;;;;;;5050630;28;20482;-70
2023/08/17 16:29:10;;;;;;;13.37;9.47;;;;;;;;;;5034981;28;20416;-69
2023/08/17 16:31:36;;;;;;;14.10;9.70;;;;;;;;;;5035110;28;20413;-69
2023/08/17 16:34:02;;;;;;;18.53;10.80;;;;;;;;;;5035283;28;20444;-69
2023/08/17 16:36:28;;;;;;;14.63;10.17;;;;;;;;;;5031077;28;20572;-69
2023/08/17 16:38:54;;;;;;;13.70;9.70;;;;;;;;;;5015143;28;20501;-68
2023/08/17 16:41:20;;;;;;;13.70;10.70;;;;;;;;;;5014994;28;20529;-69
2023/08/17 16:43:47;;;;;;;15.10;9.60;;;;;;;;;;5030921;28;20430;-69
2023/08/17 16:46:13;;;;;;;12.30;11.07;;;;;;;;;;5015871;28;20892;-68
2023/08/17 16:48:39;;;;;;;13.70;9.73;;;;;;;;;;5034380;28;20428;-68
2023/08/17 16:51:05;;;;;;;16.87;9.27;;;;;;;;;;5032920;28;20455;-69
2023/08/17 16:53:31;;;;;;;13.87;10.93;;;;;;;;;;5034443;28;20460;-68
2023/08/17 16:55:58;;;;;;;13.60;10.67;;;;;;;;;;5035056;28;20433;-69
2023/08/17 16:58:24;;;;;;;13.00;11.27;;;;;;;;;;5034283;28;21019;-69
2023/08/17 17:00:50;;;;;;;18.60;12.33;;;;;;;;;;5020965;28;20445;-69
2023/08/17 17:03:16;;;;;;;15.30;10.20;;;;;;;;;;5015186;28;20456;-68
2023/08/17 17:05:42;;;;;;;14.00;10.87;;;;;;;;;;5014920;28;20962;-69
2023/08/17 17:08:08;;;;;;;19.20;12.23;;;;;;;;;;5014458;28;20414;-68
2023/08/17 17:10:34;;;;;;;16.23;10.87;;;;;;;;;;5014866;28;20513;-69
2023/08/17 17:13:00;;;;;;;14.07;10.37;;;;;;;;;;5029366;28;20425;-69
2023/08/17 17:15:26;;;;;;;16.17;10.20;;;;;;;;;;5033993;28;20420;-69
2023/08/17 17:17:52;;;;;;;14.23;9.97;;;;;;;;;;5034269;28;20467;-69
2023/08/17 17:20:18;;;;;;;13.60;9.20;;;;;;;;;;5033899;28;20506;-72
2023/08/17 17:22:44;;;;;;;17.60;11.00;;;;;;;;;;5028359;28;20524;-69
2023/08/17 17:25:10;;;;;;;13.80;10.10;;;;;;;;;;5032336;28;20432;-69
2023/08/17 17:27:36;;;;;;;15.47;11.00;;;;;;;;;;5033854;28;20441;-69
2023/08/17 17:30:02;;;;;;;15.43;11.53;;;;;;;;;;5033656;28;20440;-68
2023/08/17 17:32:28;;;;;;;13.60;9.13;;;;;;;;;;5034150;28;20421;-69
2023/08/17 17:34:53;;;;;;;16.77;11.60;;;;;;;;;;5033747;28;20417;-69
2023/08/17 17:37:20;;;;;;;14.80;11.40;;;;;;;;;;5018557;28;20559;-69
2023/08/17 17:39:46;;;;;;;16.40;11.27;;;;;;;;;;5014008;28;20426;-69
2023/08/17 17:42:12;;;;;;;17.40;11.47;;;;;;;;;;5013887;28;20968;-68
2023/08/17 17:44:38;;;;;;;19.60;11.10;;;;;;;;;;5013149;28;20755;-68
2023/08/17 17:47:04;;;;;;;15.30;11.20;;;;;;;;;;5014432;28;20460;-68
2023/08/17 17:49:30;;;;;;;19.00;11.90;;;;;;;;;;5028208;28;20451;-68
2023/08/17 17:51:56;;;;;;;15.40;11.17;;;;;;;;;;5046465;28;20409;-68
2023/08/17 17:54:22;;;;;;;15.63;11.20;;;;;;;;;;5045034;28;20467;-68
2023/08/17 17:56:48;;;;;;;15.43;11.10;;;;;;;;;;5043388;28;20560;-68
2023/08/17 17:59:14;;;;;;;15.50;10.87;;;;;;;;;;5036378;28;20495;-68
2023/08/17 18:01:41;;;;;;;20.80;11.20;;;;;;;;;;5015238;28;20488;-68
2023/08/17 18:04:07;;;;;;;16.93;11.57;;;;;;;;;;5014902;28;20789;-68
2023/08/17 18:06:34;;;;;;;15.40;11.60;;;;;;;;;;5030227;28;20480;-68
2023/08/17 18:09:00;;;;;;;16.70;11.33;;;;;;;;;;5014393;28;20416;-68
2023/08/17 18:11:26;;;;;;;16.67;12.13;;;;;;;;;;5018360;28;20906;-68
2023/08/17 18:13:52;;;;;;;14.03;10.90;;;;;;;;;;5033037;28;20425;-68
2023/08/17 18:16:18;;;;;;;18.20;11.53;;;;;;;;;;5034085;28;20413;-68
2023/08/17 18:18:44;;;;;;;18.03;12.80;;;;;;;;;;5033353;28;20463;-68
2023/08/17 18:21:10;;;;;;;18.17;13.37;;;;;;;;;;5032980;28;20950;-68
2023/08/17 18:23:36;;;;;;;18.40;11.30;;;;;;;;;;5031692;28;20405;-69
2023/08/17 18:26:02;;;;;;;17.47;11.70;;;;;;;;;;5013390;28;20414;-69
2023/08/17 18:28:28;;;;;;;18.87;12.33;;;;;;;;;;5013478;28;20405;-69
2023/08/17 18:30:54;;;;;;;15.73;11.20;;;;;;;;;;5013474;28;20426;-68
2023/08/17 18:33:22;;;;;;;19.83;12.70;;;;;;;;;;5013336;28;20409;-68
2023/08/17 18:35:48;;;;;;;18.00;11.33;;;;;;;;;;5029232;28;20506;-68
2023/08/17 18:38:14;;;;;;;18.60;11.60;;;;;;;;;;5033190;28;20494;-69
2023/08/17 18:40:40;;;;;;;20.20;12.80;;;;;;;;;;5033137;28;20433;-69
2023/08/17 18:43:06;;;;;;;23.60;13.30;;;;;;;;;;5031325;28;20421;-68
2023/08/17 18:45:32;;;;;;;23.27;14.50;;;;;;;;;;5032870;28;20420;-68
2023/08/17 18:47:58;;;;;;;26.47;14.33;;;;;;;;;;5027571;28;20776;-69
2023/08/17 18:50:27;;;;;;;21.67;12.57;;;;;;;;;;5021312;28;20492;-67
2023/08/17 18:52:53;;;;;;;17.83;12.93;;;;;;;;;;5028378;23;20589;-68
2023/08/17 18:55:19;;;;;;;18.73;13.20;;;;;;;;;;5012559;28;20438;-67
2023/08/17 18:57:46;;;;;;;20.27;14.23;;;;;;;;;;5012468;28;20458;-68
2023/08/17 19:00:13;;;;;;;18.30;12.93;;;;;;;;;;5011973;28;20509;-67
2023/08/17 19:02:40;;;;;;;18.23;12.47;;;;;;;;;;5012225;28;20444;-67
2023/08/17 19:05:09;;;;;;;22.23;11.90;;;;;;;;;;5012411;28;20468;-67
2023/08/17 19:07:35;;;;;;;19.80;13.80;;;;;;;;;;5012427;28;20418;-67
2023/08/17 19:10:01;;;;;;;23.30;14.10;;;;;;;;;;5012061;28;20446;-66
2023/08/17 19:12:27;;;;;;;22.50;14.37;;;;;;;;;;5011955;28;20452;-67
2023/08/17 19:14:53;;;;;;;18.80;13.03;;;;;;;;;;5011664;28;20784;-67
2023/08/17 19:17:19;;;;;;;17.80;13.07;;;;;;;;;;5012000;28;20457;-67
2023/08/17 19:19:45;;;;;;;18.07;12.03;;;;;;;;;;5012086;28;20407;-66
2023/08/17 19:22:11;;;;;;;19.97;12.80;;;;;;;;;;5014937;28;20432;-67
2023/08/17 19:24:38;;;;;;;19.50;12.63;;;;;;;;;;5012980;28;20422;-66
2023/08/17 19:27:04;;;;;;;21.00;12.60;;;;;;;;;;5013736;28;20866;-67
2023/08/17 19:29:30;;;;;;;24.10;14.50;;;;;;;;;;5013997;28;20449;-66
2023/08/17 19:31:56;;;;;;;19.60;14.33;;;;;;;;;;5014831;28;20430;-67
2023/08/17 19:34:22;;;;;;;25.77;14.73;;;;;;;;;;5014945;28;20442;-67
2023/08/17 19:36:48;;;;;;;27.20;15.40;;;;;;;;;;5014443;28;20950;-67
2023/08/17 19:39:14;;;;;;;19.47;13.97;;;;;;;;;;5012324;28;20418;-67
2023/08/17 19:41:41;;;;;;;23.37;15.83;;;;;;;;;;5012125;28;20430;-67
2023/08/17 19:44:07;;;;;;;18.07;13.70;;;;;;;;;;5011894;28;20457;-67
2023/08/17 19:46:33;;;;;;;20.40;14.00;;;;;;;;;;5012259;28;20430;-66
2023/08/17 19:48:59;;;;;;;24.90;16.37;;;;;;;;;;5011157;28;20418;-68
2023/08/17 19:51:25;;;;;;;23.43;14.83;;;;;;;;;;5011151;28;20826;-66
2023/08/17 19:53:51;;;;;;;19.17;13.17;;;;;;;;;;5011166;28;20445;-66
2023/08/17 19:56:17;;;;;;;21.73;14.77;;;;;;;;;;5011880;28;20429;-67
2023/08/17 19:58:43;;;;;;;21.60;15.70;;;;;;;;;;5013404;28;20422;-66
2023/08/17 20:01:10;;;;;;;27.83;14.67;;;;;;;;;;5015922;28;20540;-66
2023/08/17 20:03:37;;;;;;;21.50;15.60;;;;;;;;;;5015855;28;20429;-66
2023/08/17 20:06:05;;;;;;;21.43;13.80;;;;;;;;;;5015778;28;20414;-67
2023/08/17 20:08:31;;;;;;;25.80;15.50;;;;;;;;;;5015238;28;20772;-67
2023/08/17 20:10:57;;;;;;;18.33;12.60;;;;;;;;;;5015628;28;20441;-67
2023/08/17 20:13:23;;;;;;;22.67;13.20;;;;;;;;;;5015823;28;20417;-67
2023/08/17 20:15:54;;;;;;;22.53;14.90;;;;;;;;;;5015645;28;20456;-67
2023/08/17 20:18:21;;;;;;;21.60;14.07;;;;;;;;;;5015185;28;20461;-66
2023/08/17 20:20:51;;;;;;;18.90;13.50;;;;;;;;;;5015311;28;20483;-68
2023/08/17 20:23:19;;;;;;;19.00;14.90;;;;;;;;;;5015725;28;20438;-66
2023/08/17 20:25:46;;;;;;;25.40;16.17;;;;;;;;;;5015979;28;20416;-67
2023/08/17 20:28:14;;;;;;;17.50;13.40;;;;;;;;;;5015682;28;20425;-68
2023/08/17 20:30:41;;;;;;;21.37;13.93;;;;;;;;;;5015647;28;20425;-72
2023/08/17 20:33:07;;;;;;;21.37;14.97;;;;;;;;;;4996648;28;20446;-72
2023/08/17 20:35:33;;;;;;;25.00;13.97;;;;;;;;;;4996615;28;20501;-68
2023/08/17 20:37:59;;;;;;;23.37;12.93;;;;;;;;;;5015746;28;20461;-68
2023/08/17 20:40:25;;;;;;;19.73;13.97;;;;;;;;;;5016148;28;20418;-67
2023/08/17 20:42:51;;;;;;;20.77;14.03;;;;;;;;;;5014985;28;20942;-68
2023/08/17 20:45:17;;;;;;;21.57;13.23;;;;;;;;;;5014640;28;20410;-66
2023/08/17 20:47:43;;;;;;;22.77;13.20;;;;;;;;;;5011967;28;20524;-68
2023/08/17 20:50:11;;;;;;;26.83;15.50;;;;;;;;;;5013469;28;20422;-68
2023/08/17 20:52:37;;;;;;;19.03;13.17;;;;;;;;;;5013680;28;20445;-69
2023/08/17 20:55:04;;;;;;;21.70;13.60;;;;;;;;;;5015167;28;20421;-67
2023/08/17 20:57:30;;;;;;;22.23;13.73;;;;;;;;;;5013426;28;21044;-69
2023/08/17 20:59:56;;;;;;;24.13;13.17;;;;;;;;;;5014463;28;20437;-68
2023/08/17 21:02:22;;;;;;;20.00;13.53;;;;;;;;;;5014518;28;20915;-68
2023/08/17 21:04:48;;;;;;;19.50;13.87;;;;;;;;;;5014875;28;20492;-68
2023/08/17 21:07:14;;;;;;;15.20;12.50;;;;;;;;;;5014956;28;20476;-69
2023/08/17 21:09:40;;;;;;;19.97;13.77;;;;;;;;;;5014127;28;20445;-67
2023/08/17 21:12:06;;;;;;;19.80;13.77;;;;;;;;;;5014728;28;20527;-67
2023/08/17 21:14:32;;;;;;;23.23;13.03;;;;;;;;;;5014739;28;20464;-68
2023/08/17 21:16:58;;;;;;;20.30;13.03;;;;;;;;;;5014438;28;20453;-67
2023/08/17 21:19:24;;;;;;;22.20;14.40;;;;;;;;;;5014366;28;20417;-68
2023/08/17 21:21:50;;;;;;;20.10;14.17;;;;;;;;;;5014580;28;20929;-68
2023/08/17 21:24:16;;;;;;;21.53;13.90;;;;;;;;;;5014455;28;20876;-68
2023/08/17 21:26:42;;;;;;;20.67;13.73;;;;;;;;;;5014463;28;20423;-69
2023/08/17 21:29:08;;;;;;;20.27;13.13;;;;;;;;;;5014073;28;20406;-69
2023/08/17 21:31:34;;;;;;;17.73;12.73;;;;;;;;;;5014195;28;20422;-70
2023/08/17 21:34:00;;;;;;;18.53;11.63;;;;;;;;;;5014207;28;20417;-69
2023/08/17 21:36:26;;;;;;;19.97;13.10;;;;;;;;;;5014088;28;20402;-67
2023/08/17 21:38:52;;;;;;;24.30;12.97;;;;;;;;;;5013070;28;20418;-70
2023/08/17 21:41:18;;;;;;;19.50;13.40;;;;;;;;;;5012265;28;20430;-69
2023/08/17 21:43:44;;;;;;;16.60;11.97;;;;;;;;;;5011515;28;20564;-69
2023/08/17 21:46:10;;;;;;;18.50;11.53;;;;;;;;;;5013640;28;20422;-67
2023/08/17 21:48:36;;;;;;;17.83;11.97;;;;;;;;;;5013151;28;20978;-70
2023/08/17 21:51:03;;;;;;;14.50;11.80;;;;;;;;;;5012556;28;20903;-69
2023/08/17 21:53:29;;;;;;;13.23;10.10;;;;;;;;;;5014002;28;20409;-69
2023/08/17 21:55:55;;;;;;;20.20;11.83;;;;;;;;;;5013185;28;20410;-69
2023/08/17 21:58:21;;;;;;;15.03;10.27;;;;;;;;;;5013118;28;20540;-70
